| time (UTC) | temp F | wind direction | speed MPH | gust MPH | rain 1hr in | rain 24hr in | rain mn in | humidity % | barometer mb |
| 20260905034036 | 89 | 113 | 2.0 | 6.0 | 0.00 | 0.00 | 0.00 | 58 | 1012.5 |
| 20260905033036 | 89 | 135 | 2.0 | 7.0 | 0.00 | 0.00 | 0.00 | 57 | 1012.5 |
| 20260905032055 | 89 | 113 | 3.0 | 6.0 | 0.00 | 0.00 | 0.00 | 56 | 1012.4 |
| 20260905031035 | 90 | 113 | 3.0 | 7.0 | 0.00 | 0.00 | 0.00 | 56 | 1012.3 |
| 20260905030036 | 90 | 113 | 3.0 | 7.0 | 0.00 | 0.00 | 0.00 | 56 | 1012.3 |
| 20260905025035 | 90 | 113 | 2.0 | 4.0 | 0.00 | 0.00 | 0.00 | 56 | 1012.2 |
| 20260905024035 | 90 | 113 | 1.0 | 4.0 | 0.00 | 0.00 | 0.00 | 55 | 1012.1 |
| 20260905023036 | 91 | 90 | 3.0 | 6.0 | 0.00 | 0.00 | 0.00 | 54 | 1012.0 |
| 20260905022036 | 91 | 113 | 3.0 | 7.0 | 0.00 | 0.00 | 0.00 | 54 | 1011.7 |
| 20260905021056 | 91 | 90 | 2.0 | 5.0 | 0.00 | 0.00 | 0.00 | 53 | 1011.6 |
| 20260905020115 | 91 | 90 | 2.0 | 7.0 | 0.00 | 0.00 | 0.00 | 53 | 1011.4 |
| 20260905015035 | 92 | 90 | 3.0 | 6.0 | 0.00 | 0.00 | 0.00 | 52 | 1011.3 |
| 20260905014035 | 92 | 90 | 4.0 | 8.0 | 0.00 | 0.00 | 0.00 | 51 | 1011.1 |
| 20260905013035 | 92 | 90 | 4.0 | 8.0 | 0.00 | 0.00 | 0.00 | 50 | 1011.0 |
| 20260905012035 | 93 | 68 | 4.0 | 9.0 | 0.00 | 0.00 | 0.00 | 50 | 1011.0 |
| 20260905011035 | 93 | 90 | 5.0 | 10.0 | 0.00 | 0.00 | 0.00 | 50 | 1010.9 |
| 20260905010035 | 93 | 90 | 5.0 | 12.0 | 0.00 | 0.00 | 0.00 | 50 | 1010.8 |
| 20260905005055 | 93 | 90 | 5.0 | 11.0 | 0.00 | 0.00 | 0.00 | 49 | 1010.6 |
| 20260905004056 | 94 | 68 | 5.0 | 10.0 | 0.00 | 0.00 | 0.00 | 49 | 1010.6 |
| 20260905003035 | 94 | 68 | 5.0 | 10.0 | 0.00 | 0.00 | 0.00 | 48 | 1010.6 |
| 20260905002035 | 95 | 68 | 4.0 | 9.0 | 0.00 | 0.00 | 0.00 | 48 | 1010.4 |
| 20260905001035 | 95 | 68 | 5.0 | 12.0 | 0.00 | 0.00 | 0.00 | 47 | 1010.4 |
| 20260905000035 | 95 | 68 | 6.0 | 12.0 | 0.00 | 0.00 | 0.00 | 48 | 1010.5 |
| 20260904235035 | 95 | 68 | 4.0 | 11.0 | 0.00 | 0.00 | 0.00 | 48 | 1010.4 |
| 20260904234035 | 96 | 90 | 5.0 | 10.0 | 0.00 | 0.00 | 0.00 | 48 | 1010.4 |
| 20260904233035 | 96 | 90 | 7.0 | 13.0 | 0.00 | 0.00 | 0.00 | 47 | 1010.2 |
| 20260904232035 | 96 | 68 | 5.0 | 11.0 | 0.00 | 0.00 | 0.00 | 48 | 1010.3 |
| 20260904231036 | 97 | 113 | 5.0 | 10.0 | 0.00 | 0.00 | 0.00 | 46 | 1010.4 |
| 20260904230035 | 97 | 135 | 6.0 | 11.0 | 0.00 | 0.00 | 0.00 | 46 | 1010.2 |
| 20260904225035 | 98 | 135 | 6.0 | 12.0 | 0.00 | 0.00 | 0.00 | 46 | 1010.5 |
| 20260904224035 | 99 | 135 | 5.0 | 14.0 | 0.00 | 0.00 | 0.00 | 45 | 1010.4 |
| 20260904223035 | 99 | 113 | 7.0 | 14.0 | 0.00 | 0.00 | 0.00 | 46 | 1010.5 |
| 20260904222035 | 98 | 158 | 6.0 | 11.0 | 0.00 | 0.00 | 0.00 | 46 | 1010.5 |
| 20260904221035 | 99 | 135 | 8.0 | 15.0 | 0.00 | 0.00 | 0.00 | 46 | 1010.5 |
| 20260904220115 | 100 | 135 | 4.0 | 10.0 | 0.00 | 0.00 | 0.00 | 45 | 1010.6 |
| 20260904215035 | 100 | 135 | 5.0 | 14.0 | 0.00 | 0.00 | 0.00 | 44 | 1010.7 |
| 20260904214035 | 100 | 135 | 5.0 | 9.0 | 0.00 | 0.00 | 0.00 | 45 | 1010.7 |
| 20260904213035 | 99 | 158 | 5.0 | 8.0 | 0.00 | 0.00 | 0.00 | 43 | 1010.8 |
| 20260904212035 | 100 | 180 | 6.0 | 15.0 | 0.00 | 0.00 | 0.00 | 43 | 1010.9 |
| 20260904211037 | 100 | 158 | 5.0 | 12.0 | 0.00 | 0.00 | 0.00 | 44 | 1011.1 |
| 20260904210037 | 99 | 180 | 6.0 | 14.0 | 0.00 | 0.00 | 0.00 | 44 | 1011.2 |
| 20260904205037 | 100 | 135 | 3.0 | 7.0 | 0.00 | 0.00 | 0.00 | 43 | 1011.3 |
| 20260904204057 | 99 | 158 | 5.0 | 9.0 | 0.00 | 0.00 | 0.00 | 45 | 1011.4 |
| 20260904203037 | 99 | 90 | 4.0 | 11.0 | 0.00 | 0.00 | 0.00 | 45 | 1011.5 |
| 20260904202037 | 99 | 90 | 5.0 | 12.0 | 0.00 | 0.00 | 0.00 | 46 | 1011.7 |
| 20260904201037 | 96 | 135 | 4.0 | 8.0 | 0.00 | 0.00 | 0.00 | 47 | 1011.7 |
| 20260904200037 | 98 | 113 | 6.0 | 14.0 | 0.00 | 0.00 | 0.00 | 47 | 1011.9 |
| 20260904195037 | 98 | 113 | 4.0 | 8.0 | 0.00 | 0.00 | 0.00 | 46 | 1012.1 |
| 20260904194057 | 99 | 113 | 5.0 | 11.0 | 0.00 | 0.00 | 0.00 | 46 | 1012.4 |
| 20260904193037 | 97 | 113 | 5.0 | 13.0 | 0.00 | 0.00 | 0.00 | 48 | 1012.4 |
| 20260904192037 | 98 | 113 | 5.0 | 11.0 | 0.00 | 0.00 | 0.00 | 45 | 1012.6 |
| 20260904191037 | 98 | 135 | 4.0 | 9.0 | 0.00 | 0.00 | 0.00 | 47 | 1012.7 |
| 20260904190037 | 97 | 113 | 5.0 | 12.0 | 0.00 | 0.00 | 0.00 | 48 | 1012.7 |
| 20260904185037 | 97 | 113 | 5.0 | 11.0 | 0.00 | 0.00 | 0.00 | 49 | 1012.8 |
| 20260904184037 | 97 | 113 | 5.0 | 11.0 | 0.00 | 0.00 | 0.00 | 49 | 1013.0 |
| 20260904183037 | 96 | 135 | 4.0 | 13.0 | 0.00 | 0.00 | 0.00 | 48 | 1013.1 |
| 20260904182037 | 95 | 135 | 5.0 | 11.0 | 0.00 | 0.00 | 0.00 | 49 | 1013.3 |
| 20260904181037 | 96 | 113 | 5.0 | 10.0 | 0.00 | 0.00 | 0.00 | 49 | 1013.5 |
| 20260904180035 | 95 | 90 | 5.0 | 11.0 | 0.00 | 0.00 | 0.00 | 53 | 1013.6 |
| 20260904175057 | 94 | 113 | 4.0 | 8.0 | 0.00 | 0.00 | 0.00 | 55 | 1013.6 |
| 20260904174037 | 94 | 113 | 6.0 | 10.0 | 0.00 | 0.00 | 0.00 | 55 | 1013.8 |
| 20260904173037 | 94 | 113 | 4.0 | 10.0 | 0.00 | 0.00 | 0.00 | 55 | 1013.9 |
| 20260904172037 | 93 | 135 | 4.0 | 8.0 | 0.00 | 0.00 | 0.00 | 55 | 1014.0 |
| 20260904171037 | 93 | 135 | 6.0 | 13.0 | 0.00 | 0.00 | 0.00 | 57 | 1014.2 |
| 20260904170037 | 92 | 113 | 5.0 | 11.0 | 0.00 | 0.00 | 0.00 | 58 | 1014.1 |
| 20260904165057 | 91 | 158 | 3.0 | 9.0 | 0.00 | 0.00 | 0.00 | 59 | 1014.3 |
| 20260904164037 | 91 | 135 | 3.0 | 10.0 | 0.00 | 0.00 | 0.00 | 64 | 1014.3 |
| 20260904163037 | 90 | 135 | 4.0 | 10.0 | 0.00 | 0.00 | 0.00 | 65 | 1014.3 |
| 20260904162037 | 89 | 158 | 3.0 | 8.0 | 0.00 | 0.00 | 0.00 | 64 | 1014.3 |
| 20260904161037 | 89 | 135 | 3.0 | 8.0 | 0.00 | 0.00 | 0.00 | 65 | 1014.3 |
| 20260904160037 | 89 | 135 | 4.0 | 9.0 | 0.00 | 0.00 | 0.00 | 66 | 1014.3 |
| 20260904155037 | 88 | 113 | 4.0 | 10.0 | 0.00 | 0.00 | 0.00 | 68 | 1014.3 |
| 20260904154037 | 87 | 158 | 5.0 | 9.0 | 0.00 | 0.00 | 0.00 | 70 | 1014.3 |
| 20260904153037 | 87 | 90 | 5.0 | 10.0 | 0.00 | 0.00 | 0.00 | 69 | 1014.1 |
| 20260904152037 | 86 | 135 | 4.0 | 12.0 | 0.00 | 0.00 | 0.00 | 73 | 1014.1 |
| 20260904151037 | 86 | 135 | 5.0 | 9.0 | 0.00 | 0.00 | 0.00 | 74 | 1014.1 |
| 20260904150037 | 85 | 113 | 4.0 | 8.0 | 0.00 | 0.00 | 0.00 | 76 | 1014.1 |
| 20260904145037 | 84 | 203 | 4.0 | 8.0 | 0.00 | 0.00 | 0.00 | 77 | 1014.1 |
| 20260904144037 | 84 | 113 | 3.0 | 7.0 | 0.00 | 0.00 | 0.00 | 80 | 1014.1 |
| 20260904143037 | 83 | 113 | 4.0 | 10.0 | 0.00 | 0.00 | 0.00 | 82 | 1014.1 |
| 20260904142057 | 82 | 113 | 6.0 | 14.0 | 0.00 | 0.00 | 0.00 | 82 | 1014.2 |
| 20260904141057 | 82 | 113 | 4.0 | 9.0 | 0.00 | 0.00 | 0.00 | 83 | 1014.1 |
| 20260904140037 | 81 | 135 | 3.0 | 7.0 | 0.00 | 0.00 | 0.00 | 84 | 1014.0 |
| 20260904135037 | 81 | 135 | 5.0 | 11.0 | 0.00 | 0.00 | 0.00 | 86 | 1014.0 |
| 20260904134037 | 80 | 135 | 6.0 | 10.0 | 0.00 | 0.00 | 0.00 | 87 | 1013.8 |
| 20260904133037 | 79 | 135 | 5.0 | 8.0 | 0.00 | 0.00 | 0.00 | 87 | 1013.7 |
| 20260904132057 | 79 | 113 | 4.0 | 9.0 | 0.00 | 0.00 | 0.00 | 88 | 1013.6 |
| 20260904131037 | 78 | 135 | 4.0 | 8.0 | 0.00 | 0.00 | 0.00 | 88 | 1013.6 |
| 20260904130057 | 78 | 135 | 3.0 | 7.0 | 0.00 | 0.00 | 0.00 | 89 | 1013.5 |
| 20260904125037 | 77 | 135 | 3.0 | 7.0 | 0.00 | 0.00 | 0.00 | 89 | 1013.3 |
| 20260904124037 | 77 | 0 | 4.0 | 8.0 | 0.00 | 0.00 | 0.00 | 88 | 1013.2 |
| 20260904123037 | 77 | 0 | 4.0 | 10.0 | 0.00 | 0.00 | 0.00 | 88 | 1013.3 |
| 20260904122037 | 77 | 0 | 2.0 | 6.0 | 0.00 | 0.00 | 0.00 | 88 | 1013.3 |
| 20260904121037 | 77 | 0 | 2.0 | 4.0 | 0.00 | 0.00 | 0.00 | 88 | 1013.3 |
| 20260904120057 | 77 | 0 | 3.0 | 5.0 | 0.00 | 0.00 | 0.00 | 87 | 1013.2 |
| 20260904115036 | 77 | 0 | 3.0 | 6.0 | 0.00 | 0.00 | 0.00 | 87 | 1013.1 |
| 20260904114037 | 77 | 0 | 2.0 | 3.0 | 0.00 | 0.00 | 0.00 | 87 | 1013.0 |
| 20260904113036 | 76 | 0 | 2.0 | 4.0 | 0.00 | 0.00 | 0.00 | 87 | 1013.0 |
| 20260904112037 | 77 | 0 | 2.0 | 4.0 | 0.00 | 0.00 | 0.00 | 86 | 1012.9 |
| 20260904111037 | 77 | 0 | 2.0 | 4.0 | 0.00 | 0.00 | 0.00 | 86 | 1012.9 |
| 20260904110037 | 77 | 0 | 2.0 | 4.0 | 0.00 | 0.00 | 0.00 | 85 | 1012.9 |
| 20260904105036 | 77 | 0 | 4.0 | 6.0 | 0.00 | 0.00 | 0.00 | 85 | 1012.8 |
| 20260904104037 | 77 | 0.0 | 3.0 | 0.00 | 0.00 | 0.00 | 84 | 1012.8 | |
| 20260904103037 | 77 | 0.0 | 3.0 | 0.00 | 0.00 | 0.00 | 84 | 1012.8 | |
| 20260904102037 | 77 | 90 | 2.0 | 4.0 | 0.00 | 0.00 | 0.00 | 84 | 1012.6 |
| 20260904101036 | 77 | 90 | 2.0 | 5.0 | 0.00 | 0.00 | 0.00 | 83 | 1012.6 |
| 20260904100036 | 77 | 90 | 2.0 | 4.0 | 0.00 | 0.00 | 0.00 | 83 | 1012.6 |
| 20260904095037 | 78 | 90 | 2.0 | 6.0 | 0.00 | 0.00 | 0.00 | 83 | 1012.5 |
| 20260904094037 | 78 | 90 | 2.0 | 3.0 | 0.00 | 0.00 | 0.00 | 82 | 1012.5 |
| 20260904093036 | 78 | 90 | 1.0 | 3.0 | 0.00 | 0.00 | 0.00 | 82 | 1012.6 |
| 20260904092056 | 78 | 90 | 1.0 | 3.0 | 0.00 | 0.00 | 0.00 | 82 | 1012.6 |
| 20260904091057 | 78 | 113 | 2.0 | 6.0 | 0.00 | 0.00 | 0.00 | 81 | 1012.6 |
| 20260904090056 | 78 | 0 | 3.0 | 7.0 | 0.00 | 0.00 | 0.00 | 81 | 1012.6 |
| 20260904085056 | 78 | 90 | 3.0 | 7.0 | 0.00 | 0.00 | 0.00 | 81 | 1012.6 |
| 20260904084036 | 78 | 0 | 3.0 | 7.0 | 0.00 | 0.00 | 0.00 | 81 | 1012.5 |
| 20260904083036 | 79 | 90 | 2.0 | 6.0 | 0.00 | 0.00 | 0.00 | 80 | 1012.5 |
| 20260904082036 | 79 | 90 | 3.0 | 7.0 | 0.00 | 0.00 | 0.00 | 80 | 1012.5 |
| 20260904081037 | 79 | 90 | 2.0 | 4.0 | 0.00 | 0.00 | 0.00 | 80 | 1012.5 |
| 20260904080037 | 79 | 113 | 2.0 | 6.0 | 0.00 | 0.00 | 0.00 | 79 | 1012.5 |
| 20260904075036 | 79 | 90 | 2.0 | 5.0 | 0.00 | 0.00 | 0.00 | 79 | 1012.4 |
| 20260904074037 | 79 | 90 | 2.0 | 6.0 | 0.00 | 0.00 | 0.00 | 78 | 1012.4 |
| 20260904073036 | 79 | 90 | 3.0 | 6.0 | 0.00 | 0.00 | 0.00 | 78 | 1012.4 |
| 20260904072036 | 80 | 90 | 2.0 | 5.0 | 0.00 | 0.00 | 0.00 | 78 | 1012.5 |
| 20260904071036 | 80 | 90 | 2.0 | 7.0 | 0.00 | 0.00 | 0.00 | 77 | 1012.3 |
| 20260904070036 | 80 | 113 | 2.0 | 6.0 | 0.00 | 0.00 | 0.00 | 77 | 1012.4 |
| 20260904065037 | 80 | 113 | 2.0 | 6.0 | 0.00 | 0.00 | 0.00 | 77 | 1012.7 |
| 20260904064036 | 80 | 113 | 3.0 | 9.0 | 0.00 | 0.00 | 0.00 | 76 | 1012.7 |
| 20260904063036 | 80 | 113 | 2.0 | 4.0 | 0.00 | 0.00 | 0.00 | 76 | 1012.5 |
| 20260904062036 | 80 | 113 | 3.0 | 8.0 | 0.00 | 0.00 | 0.00 | 75 | 1012.6 |
| 20260904061036 | 81 | 113 | 3.0 | 8.0 | 0.00 | 0.00 | 0.00 | 75 | 1012.6 |
| 20260904060036 | 81 | 113 | 4.0 | 10.0 | 0.00 | 0.00 | 0.00 | 75 | 1012.6 |
| 20260904055036 | 81 | 113 | 4.0 | 10.0 | 0.00 | 0.00 | 0.00 | 75 | 1012.6 |
| 20260904054036 | 81 | 113 | 5.0 | 11.0 | 0.00 | 0.00 | 0.00 | 74 | 1012.6 |
| 20260904053037 | 81 | 113 | 3.0 | 10.0 | 0.00 | 0.00 | 0.00 | 74 | 1012.6 |
| 20260904052037 | 81 | 113 | 5.0 | 13.0 | 0.00 | 0.00 | 0.00 | 73 | 1012.5 |
| 20260904051036 | 81 | 113 | 4.0 | 7.0 | 0.00 | 0.00 | 0.00 | 72 | 1012.5 |
| 20260904050612 | 81 | 135 | 3.0 | 3.0 | 0.00 | 0.00 | 0.00 | 72 | 1012.5 |
| 20260904045535 | 81 | 113 | 5.0 | 10.0 | 0.00 | 0.00 | 0.00 | 72 | 1012.4 |
| 20260904044616 | 81 | 113 | 5.0 | 10.0 | 0.00 | 0.00 | 0.00 | 72 | 1012.4 |
| 20260904043535 | 82 | 113 | 5.0 | 12.0 | 0.00 | 0.00 | 0.00 | 71 | 1012.5 |
| 20260904042536 | 82 | 113 | 4.0 | 11.0 | 0.00 | 0.00 | 0.00 | 71 | 1012.6 |
| 20260904041535 | 82 | 113 | 3.0 | 8.0 | 0.00 | 0.00 | 0.00 | 70 | 1012.7 |
| 20260904040536 | 82 | 113 | 4.0 | 10.0 | 0.00 | 0.00 | 0.00 | 70 | 1012.6 |
| 20260904035536 | 82 | 113 | 5.0 | 8.0 | 0.00 | 0.00 | 0.00 | 69 | 1012.7 |